Time;durP1;ratioP1;P1;durP2;ratioP2;P2;SDS_P1;SDS_P2;PMS_P1;PMS_P2;Temp;Humidity;BMP_temperature;BMP_pressure;BME280_temperature;BME280_humidity;BME280_pressure;Samples;Min_cycle;Max_cycle;Signal;HPM_P1;HPM_P2
2022/08/12 00:43:57;;;;;;;;;;;18.50;99.90;;;;;;5114980;28;20055;-79
2022/08/12 00:46:36;;;;;;;0.00;0.00;;;18.50;99.90;;;;;;5114547;28;19928;-79
2022/08/12 00:49:03;;;;;;;0.00;0.00;;;18.40;99.90;;;;;;5114181;28;20460;-79
2022/08/12 00:54:14;;;;;;;;;;;18.40;99.90;;;;;;5113906;28;20044;-79
2022/08/12 00:56:41;;;;;;;0.00;0.00;;;18.40;99.90;;;;;;5097077;28;19923;-79
2022/08/12 00:59:08;;;;;;;0.00;0.00;;;18.30;99.90;;;;;;5113844;28;20491;-79
2022/08/12 01:01:35;;;;;;;0.00;0.00;;;18.30;99.90;;;;;;5113815;28;20491;-79
2022/08/12 01:12:24;;;;;;;0.00;0.00;;;18.10;99.90;;;;;;5113601;28;20047;-79
2022/08/12 01:14:52;;;;;;;0.10;0.10;;;18.10;99.90;;;;;;5096337;28;20407;-78
2022/08/12 01:17:21;;;;;;;0.00;0.00;;;18.10;99.90;;;;;;5096539;28;20115;-79
2022/08/12 01:19:51;;;;;;;0.85;0.20;;;18.00;99.90;;;;;;5113486;28;20173;-79
2022/08/12 01:22:29;;;;;;;0.00;0.00;;;18.00;99.90;;;;;;5113523;28;20044;-79
2022/08/12 01:25:31;;;;;;;0.00;0.00;;;17.90;99.90;;;;;;5113385;28;20380;-78
2022/08/12 01:28:00;;;;;;;0.00;0.00;;;17.90;99.90;;;;;;4999371;28;20049;-78
2022/08/12 01:30:32;;;;;;;0.00;0.00;;;17.80;99.90;;;;;;5014862;28;20056;-79
2022/08/12 01:33:01;;;;;;;0.00;0.00;;;17.70;99.90;;;;;;4999105;28;20136;-79
2022/08/12 01:35:31;;;;;;;0.00;0.00;;;17.80;99.90;;;;;;5015287;28;20052;-78
2022/08/12 01:38:04;;;;;;;0.00;0.00;;;17.70;99.90;;;;;;4998967;28;20061;-78
2022/08/12 01:40:37;;;;;;;0.00;0.00;;;17.60;99.90;;;;;;4999397;28;20057;-79
2022/08/12 01:43:08;;;;;;;0.08;0.08;;;17.70;99.90;;;;;;4999077;28;20045;-79
2022/08/12 01:45:52;;;;;;;0.00;0.00;;;17.50;99.90;;;;;;5015332;28;20052;-79
2022/08/12 01:48:54;;;;;;;0.00;0.00;;;17.50;99.90;;;;;;4982361;28;20149;-79
2022/08/12 01:51:39;;;;;;;0.00;0.00;;;17.50;99.90;;;;;;5014995;28;20118;-79
2022/08/12 01:54:12;;;;;;;0.00;0.00;;;17.50;99.90;;;;;;4999322;28;20109;-79
2022/08/12 01:56:51;;;;;;;0.20;0.10;;;17.40;99.90;;;;;;4998832;28;20128;-79
2022/08/12 01:59:49;;;;;;;0.00;0.00;;;17.40;99.90;;;;;;4999386;28;20102;-79
2022/08/12 02:02:25;;;;;;;1.90;0.15;;;17.30;99.90;;;;;;4998736;28;20595;-79
2022/08/12 02:11:27;;;;;;;0.00;0.00;;;17.20;99.90;;;;;;5117274;28;20043;-79
2022/08/12 02:14:18;;;;;;;0.00;0.00;;;17.10;99.90;;;;;;5098763;28;20138;-79
2022/08/12 02:16:58;;;;;;;0.00;0.00;;;17.10;99.90;;;;;;5115548;28;20050;-79
2022/08/12 02:20:01;;;;;;;0.00;0.00;;;17.10;99.90;;;;;;5117522;28;20047;-79
2022/08/12 02:22:32;;;;;;;0.00;0.00;;;17.00;99.90;;;;;;5099799;28;20047;-79
2022/08/12 02:25:21;;;;;;;0.03;0.03;;;17.10;99.90;;;;;;5099909;28;20044;-79
2022/08/12 02:27:53;;;;;;;0.00;0.00;;;17.00;99.90;;;;;;5116684;28;20395;-79
2022/08/12 02:30:25;;;;;;;1.00;0.35;;;17.00;99.90;;;;;;5117219;28;20063;-79
2022/08/12 02:32:53;;;;;;;0.00;0.00;;;17.00;99.90;;;;;;5116752;28;20050;-79
2022/08/12 02:35:24;;;;;;;0.00;0.00;;;16.90;99.90;;;;;;5099258;28;20060;-79
2022/08/12 02:37:57;;;;;;;0.10;0.10;;;17.00;99.90;;;;;;5099358;28;20130;-79
2022/08/12 02:40:25;;;;;;;0.00;0.00;;;16.90;99.90;;;;;;5099434;28;20043;-79
2022/08/12 02:43:18;;;;;;;0.00;0.00;;;16.90;99.90;;;;;;5099497;28;20063;-79
2022/08/12 02:46:02;;;;;;;0.10;0.10;;;16.90;99.90;;;;;;5116960;28;20048;-79
2022/08/12 02:48:49;;;;;;;0.00;0.00;;;16.90;99.90;;;;;;5116746;28;20070;-79
2022/08/12 02:51:19;;;;;;;0.00;0.00;;;16.80;99.90;;;;;;5115931;28;20054;-79
2022/08/12 02:53:47;;;;;;;0.10;0.10;;;16.80;99.90;;;;;;5099166;28;20548;-79
2022/08/12 02:56:16;;;;;;;0.00;0.00;;;16.80;99.90;;;;;;5116271;28;20449;-79
2022/08/12 02:58:45;;;;;;;0.00;0.00;;;16.70;99.90;;;;;;5116259;28;20053;-79
2022/08/12 03:01:12;;;;;;;0.00;0.00;;;16.70;99.90;;;;;;5116281;28;20051;-79
2022/08/12 03:03:39;;;;;;;0.00;0.00;;;16.70;99.90;;;;;;5116144;28;20050;-79
2022/08/12 03:06:11;;;;;;;0.00;0.00;;;16.70;99.90;;;;;;5116409;28;20044;-79
2022/08/12 03:08:42;;;;;;;0.00;0.00;;;16.60;99.90;;;;;;5099190;28;20086;-79
2022/08/12 03:11:35;;;;;;;0.00;0.00;;;16.60;99.90;;;;;;5115941;28;20044;-79
2022/08/12 03:14:02;;;;;;;0.00;0.00;;;16.60;99.90;;;;;;5116014;28;20138;-79
2022/08/12 03:16:32;;;;;;;0.00;0.00;;;16.50;99.90;;;;;;5115594;28;20040;-79
2022/08/12 03:18:58;;;;;;;0.00;0.00;;;16.50;99.90;;;;;;5115749;28;20050;-79
2022/08/12 03:21:24;;;;;;;0.08;0.08;;;16.50;99.90;;;;;;5115730;28;20035;-79
2022/08/12 03:23:52;;;;;;;0.00;0.00;;;16.50;99.90;;;;;;5115785;28;20039;-79
2022/08/12 03:26:23;;;;;;;0.00;0.00;;;16.50;99.90;;;;;;5115913;28;20047;-79
2022/08/12 03:28:49;;;;;;;0.00;0.00;;;16.50;99.90;;;;;;5098786;28;20066;-79
2022/08/12 03:31:17;;;;;;;0.00;0.00;;;16.50;99.90;;;;;;5098550;28;20040;-79
2022/08/12 03:33:45;;;;;;;0.05;0.03;;;16.50;99.90;;;;;;5098529;28;20050;-79
2022/08/12 03:36:18;;;;;;;0.25;0.00;;;16.50;99.90;;;;;;5115445;28;20048;-79
2022/08/12 03:38:58;;;;;;;0.10;0.00;;;16.40;99.90;;;;;;5099085;28;20051;-79
2022/08/12 03:41:34;;;;;;;0.00;0.00;;;16.40;99.90;;;;;;5098585;28;20078;-79
2022/08/12 04:00:50;;;;;;;0.00;0.00;;;16.30;99.90;;;;;;5114992;28;20281;-79
2022/08/12 04:06:00;;;;;;;0.00;0.00;;;16.20;99.90;;;;;;5114684;28;20086;-79
2022/08/12 04:08:26;;;;;;;0.00;0.00;;;16.20;99.90;;;;;;5114942;28;20036;-79
2022/08/12 04:13:39;;;;;;;0.00;0.00;;;16.10;99.90;;;;;;5114610;28;20044;-79
2022/08/12 04:16:06;;;;;;;0.20;0.20;;;16.10;99.90;;;;;;5115209;28;20521;-79
2022/08/12 04:18:32;;;;;;;0.00;0.00;;;16.10;99.90;;;;;;5097815;28;20044;-79
2022/08/12 04:20:58;;;;;;;0.00;0.00;;;16.10;99.90;;;;;;5114997;28;20434;-79
2022/08/12 04:23:24;;;;;;;0.00;0.00;;;16.10;99.90;;;;;;5114679;28;20043;-79
2022/08/12 04:25:50;;;;;;;0.15;0.15;;;16.10;99.90;;;;;;5097656;28;20047;-79
2022/08/12 04:28:24;;;;;;;0.00;0.00;;;16.00;99.90;;;;;;5096878;28;20451;-79
2022/08/12 04:30:50;;;;;;;0.30;0.20;;;16.00;99.90;;;;;;5114566;28;20059;-79
2022/08/12 04:33:17;;;;;;;0.08;0.00;;;16.00;99.90;;;;;;5096868;28;20143;-79
2022/08/12 04:35:43;;;;;;;0.00;0.00;;;16.00;99.90;;;;;;5114425;28;20048;-79
2022/08/12 04:38:10;;;;;;;0.10;0.10;;;16.00;99.90;;;;;;5114397;28;20368;-79
2022/08/12 04:40:35;;;;;;;0.00;0.00;;;15.90;99.90;;;;;;5096974;28;20048;-79
2022/08/12 04:43:02;;;;;;;0.00;0.00;;;16.00;99.90;;;;;;5114299;28;20088;-79
2022/08/12 04:45:33;;;;;;;0.00;0.00;;;16.00;99.90;;;;;;5114165;28;20483;-79
2022/08/12 04:48:00;;;;;;;0.00;0.00;;;16.00;99.90;;;;;;5114286;28;20051;-79
2022/08/12 04:50:27;;;;;;;0.20;0.20;;;16.00;99.90;;;;;;5113715;28;20047;-79
2022/08/12 04:52:54;;;;;;;0.00;0.00;;;16.10;99.90;;;;;;5113525;28;20522;-79
2022/08/12 04:55:22;;;;;;;0.00;0.00;;;16.10;99.90;;;;;;5097039;28;20043;-79
2022/08/12 04:57:48;;;;;;;0.00;0.00;;;16.10;99.90;;;;;;5113943;28;20138;-79
2022/08/12 05:00:15;;;;;;;0.00;0.00;;;16.20;99.90;;;;;;5113845;28;20067;-79
2022/08/12 05:02:41;;;;;;;0.00;0.00;;;16.20;99.90;;;;;;5096742;28;20051;-79
2022/08/12 05:05:14;;;;;;;0.00;0.00;;;16.20;99.90;;;;;;5113941;28;20510;-79
2022/08/12 05:07:40;;;;;;;0.00;0.00;;;16.20;99.90;;;;;;5113589;28;20475;-79
2022/08/12 05:10:06;;;;;;;0.00;0.00;;;16.30;99.90;;;;;;5096414;28;20081;-79
2022/08/12 05:12:38;;;;;;;0.00;0.00;;;16.30;99.90;;;;;;5096504;28;20055;-79
2022/08/12 05:15:05;;;;;;;0.57;0.32;;;16.40;99.90;;;;;;5113285;28;20490;-79
2022/08/12 05:17:31;;;;;;;0.00;0.00;;;16.50;99.90;;;;;;5113549;28;20505;-79
2022/08/12 05:19:57;;;;;;;0.00;0.00;;;16.50;99.90;;;;;;5113478;28;20040;-79
2022/08/12 05:22:22;;;;;;;0.00;0.00;;;16.50;99.90;;;;;;5113548;28;20372;-79
2022/08/12 05:24:48;;;;;;;0.00;0.00;;;16.50;99.90;;;;;;5112898;28;20055;-79
2022/08/12 05:27:14;;;;;;;0.10;0.00;;;16.60;99.90;;;;;;5113362;28;20096;-79
2022/08/12 05:29:41;;;;;;;0.00;0.00;;;16.70;99.90;;;;;;5113325;28;20090;-79
2022/08/12 05:32:07;;;;;;;0.10;0.05;;;16.70;99.90;;;;;;5113546;28;20044;-79
2022/08/12 05:34:33;;;;;;;0.80;0.17;;;16.70;99.90;;;;;;5096050;28;20052;-79
2022/08/12 05:37:00;;;;;;;0.10;0.10;;;16.80;99.90;;;;;;5113249;28;20051;-78
2022/08/12 05:39:25;;;;;;;0.00;0.00;;;16.90;99.90;;;;;;5095889;28;20064;-79
2022/08/12 05:41:52;;;;;;;0.00;0.00;;;17.00;99.90;;;;;;5096200;28;20047;-78
2022/08/12 05:44:18;;;;;;;0.10;0.00;;;17.10;99.90;;;;;;5113256;28;20059;-78
2022/08/12 05:46:44;;;;;;;0.00;0.00;;;17.20;99.90;;;;;;5096301;28;20043;-78
2022/08/12 05:49:10;;;;;;;0.00;0.00;;;17.30;99.90;;;;;;5113088;28;20047;-78
2022/08/12 05:51:36;;;;;;;0.00;0.00;;;17.40;99.90;;;;;;5112438;28;20062;-79
2022/08/12 05:54:03;;;;;;;0.00;0.00;;;17.60;99.90;;;;;;5113536;28;20126;-79
2022/08/12 05:56:31;;;;;;;0.00;0.00;;;17.70;99.90;;;;;;5112941;28;20399;-79
2022/08/12 05:58:58;;;;;;;0.00;0.00;;;17.80;99.90;;;;;;5095998;28;20058;-78
2022/08/12 06:01:25;;;;;;;0.00;0.00;;;17.80;99.90;;;;;;5112906;28;20130;-78
2022/08/12 06:03:52;;;;;;;0.00;0.00;;;17.90;99.90;;;;;;5095991;28;20051;-79
2022/08/12 06:06:18;;;;;;;0.00;0.00;;;17.90;99.90;;;;;;5113037;28;20090;-79
2022/08/12 06:08:52;;;;;;;0.00;0.00;;;17.90;99.90;;;;;;5096325;28;20070;-79
2022/08/12 06:11:22;;;;;;;0.00;0.00;;;18.00;99.90;;;;;;5095813;28;20051;-79
2022/08/12 06:13:49;;;;;;;0.00;0.00;;;18.10;99.90;;;;;;5096294;28;20126;-78
2022/08/12 06:16:17;;;;;;;0.00;0.00;;;18.20;99.90;;;;;;5112810;28;20135;-79
2022/08/12 06:18:43;;;;;;;0.00;0.00;;;18.30;99.90;;;;;;5112756;28;20195;-78
2022/08/12 06:21:11;;;;;;;0.00;0.00;;;18.40;99.90;;;;;;5095733;28;20040;-79
2022/08/12 06:23:37;;;;;;;0.00;0.00;;;18.50;99.90;;;;;;5095591;28;20399;-79
2022/08/12 06:26:10;;;;;;;0.00;0.00;;;18.60;99.90;;;;;;5095401;28;20058;-79
2022/08/12 06:28:41;;;;;;;0.00;0.00;;;18.60;99.90;;;;;;5095417;28;20406;-80
2022/08/12 06:31:07;;;;;;;0.00;0.00;;;18.70;99.90;;;;;;5095748;28;20047;-80
2022/08/12 06:33:34;;;;;;;0.00;0.00;;;18.70;99.90;;;;;;5095621;28;20036;-80
2022/08/12 06:36:00;;;;;;;0.00;0.00;;;18.70;99.90;;;;;;5112254;28;20055;-78
2022/08/12 06:38:29;;;;;;;0.00;0.00;;;18.80;99.90;;;;;;5112696;28;20189;-79
2022/08/12 06:43:42;;;;;;;0.00;0.00;;;18.80;99.90;;;;;;5112503;28;20047;-79
2022/08/12 06:46:10;;;;;;;0.00;0.00;;;18.80;99.90;;;;;;5112997;28;20096;-79
2022/08/12 06:48:36;;;;;;;0.00;0.00;;;18.80;99.90;;;;;;5095441;28;20149;-79
2022/08/12 06:51:03;;;;;;;0.30;0.10;;;19.00;99.90;;;;;;5095412;28;20083;-79
2022/08/12 06:53:31;;;;;;;0.00;0.00;;;19.00;99.90;;;;;;5116101;28;20049;-80
2022/08/12 06:56:00;;;;;;;0.95;0.30;;;19.20;99.90;;;;;;5098974;28;20120;-79
2022/08/12 06:58:30;;;;;;;0.00;0.00;;;19.50;99.90;;;;;;5116870;28;20144;-79
2022/08/12 07:00:57;;;;;;;0.00;0.00;;;19.90;99.90;;;;;;5115686;28;20470;-79
2022/08/12 07:03:27;;;;;;;0.00;0.00;;;20.30;99.90;;;;;;5110422;28;20134;-79
2022/08/12 07:05:58;;;;;;;0.00;0.00;;;21.00;99.90;;;;;;5089161;28;20403;-79
2022/08/12 07:08:29;;;;;;;0.00;0.00;;;21.90;99.90;;;;;;5105289;28;20117;-79
2022/08/12 07:11:03;;;;;;;0.00;0.00;;;22.80;99.90;;;;;;5112620;28;20055;-81
2022/08/12 07:13:42;;;;;;;1.08;0.08;;;23.30;99.90;;;;;;5098984;28;20044;-80
2022/08/12 07:16:12;;;;;;;0.03;0.00;;;23.40;99.90;;;;;;5115987;28;20055;-80
2022/08/12 07:18:40;;;;;;;1.08;0.32;;;23.40;99.90;;;;;;5098708;28;20058;-81
2022/08/12 07:21:06;;;;;;;1.27;0.13;;;23.50;99.90;;;;;;5115476;28;20093;-81
2022/08/12 07:23:38;;;;;;;0.00;0.00;;;23.60;99.90;;;;;;5098438;28;20051;-81
2022/08/12 07:26:07;;;;;;;0.03;0.03;;;24.00;99.90;;;;;;5116078;28;20047;-80
2022/08/12 07:28:34;;;;;;;0.00;0.00;;;24.60;99.90;;;;;;5098121;28;20047;-80
2022/08/12 07:31:07;;;;;;;0.00;0.00;;;24.70;99.90;;;;;;5115425;28;20094;-80
2022/08/12 07:33:37;;;;;;;0.00;0.00;;;24.50;99.00;;;;;;5097276;28;20054;-81
2022/08/12 07:36:05;;;;;;;0.00;0.00;;;24.30;99.90;;;;;;5115974;28;20036;-80
2022/08/12 07:38:42;;;;;;;0.25;0.10;;;24.00;99.90;;;;;;5098168;28;20059;-81
2022/08/12 07:41:30;;;;;;;0.00;0.00;;;23.80;99.90;;;;;;5098529;28;20051;-80
2022/08/12 07:44:14;;;;;;;0.00;0.00;;;23.70;99.90;;;;;;5115324;28;20083;-80
2022/08/12 07:46:42;;;;;;;0.65;0.17;;;23.70;99.90;;;;;;5098621;28;20054;-81
2022/08/12 07:49:17;;;;;;;0.00;0.00;;;23.70;99.90;;;;;;5115094;28;20043;-80
2022/08/12 07:51:43;;;;;;;0.03;0.00;;;23.70;99.90;;;;;;5097653;28;20083;-80
2022/08/12 07:54:11;;;;;;;0.20;0.10;;;23.70;99.90;;;;;;5114719;28;20048;-80
2022/08/12 07:56:39;;;;;;;0.00;0.00;;;23.80;99.90;;;;;;5098223;28;20130;-80
2022/08/12 07:59:06;;;;;;;0.00;0.00;;;23.90;99.90;;;;;;5098184;28;20044;-81
2022/08/12 08:01:32;;;;;;;0.00;0.00;;;23.80;99.80;;;;;;5097974;28;20154;-80
2022/08/12 08:06:43;;;;;;;0.35;0.10;;;23.90;99.90;;;;;;5114915;28;20039;-80
2022/08/12 08:09:14;;;;;;;0.20;0.10;;;23.90;99.90;;;;;;5097846;28;20099;-80
2022/08/12 08:14:27;;;;;;;0.00;0.00;;;23.90;99.90;;;;;;5114601;28;20139;-80
2022/08/12 08:16:55;;;;;;;0.00;0.00;;;24.00;99.90;;;;;;5096668;28;20055;-79
2022/08/12 08:19:22;;;;;;;0.00;0.00;;;24.00;99.80;;;;;;5097307;28;20459;-80
2022/08/12 08:21:56;;;;;;;0.00;0.00;;;24.10;98.60;;;;;;5114233;28;20184;-80
2022/08/12 08:24:25;;;;;;;0.28;0.28;;;24.10;98.20;;;;;;5113667;28;20134;-80
2022/08/12 08:26:53;;;;;;;0.00;0.00;;;24.20;98.20;;;;;;5097389;28;20050;-79
2022/08/12 08:29:20;;;;;;;0.73;0.22;;;24.20;98.40;;;;;;5114709;28;20040;-79
2022/08/12 08:31:49;;;;;;;0.00;0.00;;;24.40;98.10;;;;;;5114344;28;20390;-79
2022/08/12 08:34:16;;;;;;;0.00;0.00;;;24.40;97.70;;;;;;5114226;28;20376;-80
2022/08/12 08:36:43;;;;;;;0.20;0.00;;;24.50;98.60;;;;;;5097146;28;20050;-80
2022/08/12 08:39:11;;;;;;;0.00;0.00;;;24.60;98.00;;;;;;5097348;28;20079;-79
2022/08/12 08:44:21;;;;;;;;;;;24.80;98.30;;;;;;5114555;28;20055;-79
2022/08/12 08:46:48;;;;;;;0.00;0.00;;;24.90;97.10;;;;;;5097388;28;19982;-80
2022/08/12 08:49:17;;;;;;;0.00;0.00;;;25.00;97.20;;;;;;5114709;28;20387;-80
2022/08/12 08:51:44;;;;;;;0.00;0.00;;;25.10;98.70;;;;;;5113452;28;20055;-79
2022/08/12 08:54:11;;;;;;;0.13;0.00;;;25.20;98.40;;;;;;5113652;28;20092;-79
2022/08/12 08:56:45;;;;;;;0.00;0.00;;;25.30;98.30;;;;;;5096721;28;20070;-80
2022/08/12 08:59:12;;;;;;;0.00;0.00;;;25.40;97.40;;;;;;5097246;28;20108;-79
2022/08/12 09:01:39;;;;;;;0.00;0.00;;;25.50;96.80;;;;;;5113849;28;20068;-80
2022/08/12 09:04:06;;;;;;;0.00;0.00;;;25.70;97.10;;;;;;5096897;28;20079;-80
2022/08/12 09:06:31;;;;;;;0.00;0.00;;;25.80;95.90;;;;;;5114115;28;20402;-79
2022/08/12 09:08:57;;;;;;;0.60;0.10;;;25.90;96.50;;;;;;5113732;28;20043;-80
2022/08/12 09:14:08;;;;;;;0.00;0.00;;;26.20;94.70;;;;;;5113451;28;20040;-80
2022/08/12 09:16:39;;;;;;;0.00;0.00;;;26.30;94.50;;;;;;5096728;28;20047;-80
2022/08/12 09:19:08;;;;;;;0.00;0.00;;;26.50;93.00;;;;;;5113780;28;20058;-79
2022/08/12 09:21:34;;;;;;;0.00;0.00;;;26.60;91.50;;;;;;5113675;28;20047;-79
2022/08/12 09:24:00;;;;;;;0.00;0.00;;;26.70;91.80;;;;;;5095998;28;20487;-79
2022/08/12 09:26:33;;;;;;;0.00;0.00;;;26.90;91.10;;;;;;5095795;28;20056;-80
2022/08/12 09:28:59;;;;;;;0.08;0.08;;;27.10;90.00;;;;;;5096574;28;20043;-80
2022/08/12 09:31:26;;;;;;;0.32;0.10;;;27.20;89.90;;;;;;5096434;28;20043;-79
2022/08/12 09:33:52;;;;;;;0.00;0.00;;;27.30;90.50;;;;;;5096261;28;20032;-80
2022/08/12 09:36:19;;;;;;;0.00;0.00;;;27.40;90.00;;;;;;5096399;28;20386;-80
2022/08/12 09:38:45;;;;;;;0.32;0.13;;;27.50;90.30;;;;;;5114023;28;20055;-80
2022/08/12 09:41:14;;;;;;;0.00;0.00;;;27.60;85.60;;;;;;5096347;28;20429;-79
2022/08/12 09:46:30;;;;;;;0.00;0.00;;;27.90;82.40;;;;;;5113306;28;20051;-80
2022/08/12 09:48:57;;;;;;;0.00;0.00;;;28.00;85.60;;;;;;5113126;28;20052;-78
2022/08/12 09:51:25;;;;;;;0.00;0.00;;;28.10;82.10;;;;;;5112828;28;20056;-78
2022/08/12 09:53:51;;;;;;;0.00;0.00;;;28.30;83.20;;;;;;5112855;28;20093;-78
2022/08/12 09:56:18;;;;;;;0.20;0.00;;;28.30;80.30;;;;;;5096055;28;20084;-80
2022/08/12 09:58:49;;;;;;;0.10;0.10;;;28.40;78.90;;;;;;5113131;28;20083;-78
2022/08/12 10:01:17;;;;;;;1.13;0.08;;;28.50;81.80;;;;;;5113201;28;20047;-78
2022/08/12 10:03:44;;;;;;;0.10;0.10;;;28.60;81.30;;;;;;5113025;28;20087;-79
2022/08/12 10:06:10;;;;;;;0.00;0.00;;;28.80;80.10;;;;;;5113566;28;20096;-78
2022/08/12 10:08:37;;;;;;;0.00;0.00;;;28.90;78.40;;;;;;5095471;28;20143;-78
2022/08/12 10:13:52;;;;;;;0.00;0.00;;;29.20;78.50;;;;;;5112781;28;20104;-78
2022/08/12 10:16:27;;;;;;;0.00;0.00;;;29.30;77.90;;;;;;5112935;28;20055;-78
2022/08/12 10:19:04;;;;;;;0.00;0.00;;;29.50;74.60;;;;;;5095909;28;20081;-78
2022/08/12 10:21:36;;;;;;;0.00;0.00;;;29.50;72.50;;;;;;5113259;28;20383;-78
2022/08/12 10:24:03;;;;;;;0.10;0.10;;;29.60;72.30;;;;;;5095745;28;20052;-78
2022/08/12 10:31:59;;;;;;;0.00;0.00;;;29.90;67.90;;;;;;5116913;28;20047;-78
2022/08/12 10:34:25;;;;;;;0.08;0.00;;;30.00;69.40;;;;;;5116017;28;20051;-78
2022/08/12 10:36:57;;;;;;;0.00;0.00;;;30.10;67.70;;;;;;5099354;28;20047;-78
2022/08/12 10:39:35;;;;;;;0.00;0.00;;;30.20;65.10;;;;;;5117139;28;20092;-78
2022/08/12 10:44:50;;;;;;;1.95;0.38;;;30.50;66.80;;;;;;5116612;28;20048;-79
2022/08/12 10:47:16;;;;;;;0.00;0.00;;;30.60;64.00;;;;;;5098218;28;20069;-79
2022/08/12 10:49:45;;;;;;;0.10;0.10;;;30.70;61.70;;;;;;5099582;28;20055;-80
2022/08/12 10:52:11;;;;;;;0.10;0.00;;;30.80;60.10;;;;;;5116088;28;20052;-80
2022/08/12 10:54:37;;;;;;;0.00;0.00;;;30.80;61.90;;;;;;5116109;28;20043;-80
2022/08/12 10:57:03;;;;;;;0.00;0.00;;;31.00;58.60;;;;;;5116470;28;20043;-80
2022/08/12 10:59:30;;;;;;;0.00;0.00;;;31.10;57.10;;;;;;5116260;28;20196;-79
2022/08/12 11:01:57;;;;;;;0.00;0.00;;;31.30;64.10;;;;;;5095546;28;20051;-80
2022/08/12 11:04:23;;;;;;;0.00;0.00;;;31.50;61.00;;;;;;5108473;28;20048;-80
2022/08/12 11:06:50;;;;;;;0.00;0.00;;;31.60;58.70;;;;;;5114732;28;20055;-80
2022/08/12 11:09:20;;;;;;;0.00;0.00;;;31.70;59.90;;;;;;5097438;28;20148;-80
2022/08/12 11:11:47;;;;;;;0.10;0.10;;;31.70;55.90;;;;;;5097236;28;20047;-81
2022/08/12 11:14:18;;;;;;;0.00;0.00;;;31.80;55.50;;;;;;5096720;28;20052;-81
2022/08/12 11:16:44;;;;;;;0.00;0.00;;;31.80;57.80;;;;;;5096808;28;20070;-80
2022/08/12 11:19:11;;;;;;;0.00;0.00;;;31.90;57.30;;;;;;5096819;28;20141;-80
2022/08/12 11:21:37;;;;;;;0.00;0.00;;;32.00;54.30;;;;;;5097150;28;20453;-80
2022/08/12 11:24:04;;;;;;;0.00;0.00;;;32.10;57.60;;;;;;5113561;28;20491;-81
2022/08/12 11:26:30;;;;;;;0.00;0.00;;;32.20;56.60;;;;;;5095953;28;20059;-80
2022/08/12 11:28:56;;;;;;;0.10;0.10;;;32.20;56.40;;;;;;5096283;28;20142;-79
2022/08/12 11:31:21;;;;;;;0.00;0.00;;;32.20;54.70;;;;;;5096797;28;20090;-79
2022/08/12 11:33:48;;;;;;;0.00;0.00;;;32.30;53.00;;;;;;5096947;28;20047;-79
2022/08/12 11:36:14;;;;;;;0.00;0.00;;;32.40;54.10;;;;;;5095928;28;20055;-80
2022/08/12 11:38:40;;;;;;;0.00;0.00;;;32.40;53.10;;;;;;5113176;28;20119;-79
2022/08/12 11:41:05;;;;;;;0.00;0.00;;;32.40;55.80;;;;;;5114060;28;20461;-79
2022/08/12 11:43:32;;;;;;;0.00;0.00;;;32.50;53.60;;;;;;5113754;28;20069;-79
2022/08/12 11:45:58;;;;;;;0.00;0.00;;;32.50;51.10;;;;;;5095491;28;20056;-80
2022/08/12 11:48:25;;;;;;;0.00;0.00;;;32.60;54.20;;;;;;5096529;28;20424;-81
2022/08/12 11:50:50;;;;;;;0.00;0.00;;;32.60;52.90;;;;;;5096443;28;20437;-80
2022/08/12 11:53:16;;;;;;;0.00;0.00;;;32.60;53.20;;;;;;5095561;28;20043;-81
2022/08/12 11:55:42;;;;;;;0.15;0.03;;;32.60;50.80;;;;;;5113046;28;20043;-80
2022/08/12 11:58:08;;;;;;;0.10;0.00;;;32.70;51.60;;;;;;5113355;28;20443;-81
2022/08/12 12:00:34;;;;;;;0.10;0.00;;;32.80;52.40;;;;;;5095351;28;20062;-80
2022/08/12 12:02:59;;;;;;;0.13;0.00;;;32.90;50.30;;;;;;5095878;28;20089;-80
2022/08/12 12:05:25;;;;;;;0.03;0.00;;;32.90;49.10;;;;;;5097263;28;20463;-81
2022/08/12 12:07:50;;;;;;;0.00;0.00;;;32.90;52.10;;;;;;5093448;28;20106;-81
2022/08/12 12:10:18;;;;;;;0.52;0.20;;;33.00;48.10;;;;;;5075727;28;20059;-83
2022/08/12 12:12:45;;;;;;;0.00;0.00;;;33.10;54.10;;;;;;5075266;28;20052;-81
2022/08/12 12:15:11;;;;;;;0.00;0.00;;;33.10;48.70;;;;;;5109971;28;20527;-80
2022/08/12 12:17:39;;;;;;;0.17;0.17;;;33.10;48.40;;;;;;5096733;28;20523;-80
2022/08/12 12:20:10;;;;;;;0.15;0.00;;;33.10;49.80;;;;;;5097919;28;20499;-80
2022/08/12 12:22:38;;;;;;;0.00;0.00;;;33.20;49.80;;;;;;5097953;28;20092;-80
2022/08/12 12:25:04;;;;;;;0.00;0.00;;;33.20;49.90;;;;;;5097668;28;20503;-80
2022/08/12 12:27:48;;;;;;;0.00;0.00;;;33.30;49.00;;;;;;5109048;28;20135;-80
2022/08/12 12:30:14;;;;;;;0.20;0.10;;;33.30;49.70;;;;;;5075713;28;20040;-81
2022/08/12 12:32:39;;;;;;;0.00;0.00;;;33.40;49.00;;;;;;5075798;28;20441;-80
2022/08/12 12:35:05;;;;;;;0.00;0.00;;;33.50;47.80;;;;;;5075846;28;20439;-81
2022/08/12 12:37:31;;;;;;;0.65;0.15;;;33.40;47.00;;;;;;5076398;28;20069;-84
2022/08/12 12:39:57;;;;;;;0.10;0.10;;;33.50;48.80;;;;;;5077740;28;20555;-80
2022/08/12 12:42:23;;;;;;;0.00;0.00;;;33.60;48.50;;;;;;5098741;28;20040;-79
2022/08/12 12:44:49;;;;;;;0.03;0.00;;;33.60;46.80;;;;;;5077418;28;20090;-80
2022/08/12 12:47:15;;;;;;;0.00;0.00;;;33.60;49.40;;;;;;5077197;28;20126;-80
2022/08/12 12:49:41;;;;;;;0.00;0.00;;;33.70;48.20;;;;;;5093232;28;20058;-79
2022/08/12 12:52:07;;;;;;;0.00;0.00;;;33.70;47.60;;;;;;5076960;28;20070;-80
2022/08/12 12:54:33;;;;;;;0.00;0.00;;;33.60;47.10;;;;;;5093779;28;20491;-79
2022/08/12 12:56:59;;;;;;;0.00;0.00;;;33.70;47.60;;;;;;5077379;28;20474;-80
2022/08/12 12:59:26;;;;;;;0.05;0.00;;;33.60;47.10;;;;;;5076775;28;20404;-80
2022/08/12 13:01:52;;;;;;;0.13;0.10;;;33.60;49.00;;;;;;5077121;28;20039;-79
2022/08/12 13:04:18;;;;;;;0.10;0.08;;;33.60;47.30;;;;;;5094169;28;20055;-80
2022/08/12 13:06:50;;;;;;;0.00;0.00;;;33.70;49.70;;;;;;5076814;28;20135;-80
2022/08/12 13:09:18;;;;;;;0.00;0.00;;;33.60;44.70;;;;;;5093813;28;20055;-80
2022/08/12 13:11:44;;;;;;;0.00;0.00;;;33.60;47.20;;;;;;5077579;28;20139;-80
2022/08/12 13:14:12;;;;;;;0.30;0.10;;;33.80;47.50;;;;;;5076919;28;20391;-80
2022/08/12 13:16:39;;;;;;;0.00;0.00;;;33.80;46.40;;;;;;5077124;28;20369;-83
2022/08/12 13:19:04;;;;;;;0.00;0.00;;;33.80;46.80;;;;;;5076492;28;20101;-80
2022/08/12 13:21:31;;;;;;;0.00;0.00;;;33.80;46.40;;;;;;5098109;28;20633;-80
2022/08/12 13:23:57;;;;;;;0.00;0.00;;;33.80;47.50;;;;;;5114201;28;20479;-81
2022/08/12 13:26:23;;;;;;;0.10;0.05;;;33.80;47.40;;;;;;5114135;28;20126;-81
2022/08/12 13:28:52;;;;;;;0.10;0.00;;;33.80;47.30;;;;;;5114117;28;20043;-80
2022/08/12 13:31:20;;;;;;;0.00;0.00;;;33.90;45.70;;;;;;5097244;28;20043;-81
2022/08/12 13:33:46;;;;;;;0.00;0.00;;;33.80;44.00;;;;;;5113515;28;20510;-82
2022/08/12 13:36:12;;;;;;;0.00;0.00;;;33.80;44.80;;;;;;5113129;28;20150;-81
2022/08/12 13:38:42;;;;;;;0.00;0.00;;;33.60;44.20;;;;;;5086852;28;20080;-81
2022/08/12 13:41:17;;;;;;;1.77;0.32;;;33.60;44.40;;;;;;5076390;28;20048;-81
2022/08/12 13:43:42;;;;;;;0.00;0.00;;;33.60;48.40;;;;;;5093234;28;20047;-81
2022/08/12 13:46:12;;;;;;;0.00;0.00;;;33.60;45.10;;;;;;5076839;28;20054;-80
2022/08/12 13:48:38;;;;;;;0.00;0.00;;;33.70;45.70;;;;;;5092474;28;20442;-80
2022/08/12 13:51:04;;;;;;;0.90;0.10;;;33.70;45.80;;;;;;5092454;28;20048;-80
2022/08/12 13:53:30;;;;;;;0.00;0.00;;;33.80;45.00;;;;;;5076530;28;20051;-79
2022/08/12 13:55:55;;;;;;;0.00;0.00;;;33.80;47.40;;;;;;5093469;28;20127;-80
2022/08/12 13:58:21;;;;;;;0.00;0.00;;;33.90;45.50;;;;;;5093481;28;20075;-80
2022/08/12 14:00:53;;;;;;;1.02;0.20;;;33.90;45.60;;;;;;5093333;28;20075;-80
2022/08/12 14:03:20;;;;;;;0.00;0.00;;;33.90;45.20;;;;;;5098363;28;20052;-79
2022/08/12 14:05:46;;;;;;;0.00;0.00;;;33.80;45.40;;;;;;5098232;28;20395;-79
2022/08/12 14:08:15;;;;;;;0.00;0.00;;;33.90;45.60;;;;;;5080050;28;20044;-80
2022/08/12 14:10:47;;;;;;;0.28;0.28;;;33.80;44.70;;;;;;5096562;28;20533;-80
2022/08/12 14:13:16;;;;;;;0.00;0.00;;;33.70;45.00;;;;;;5097227;28;20051;-80
2022/08/12 14:15:49;;;;;;;0.00;0.00;;;33.80;47.30;;;;;;5080262;28;20047;-80
2022/08/12 14:18:33;;;;;;;0.00;0.00;;;33.80;47.20;;;;;;5097179;28;20131;-80
2022/08/12 14:21:02;;;;;;;0.00;0.00;;;33.80;45.80;;;;;;5078473;28;20078;-82
2022/08/12 14:23:33;;;;;;;0.00;0.00;;;33.60;45.80;;;;;;5095035;28;20040;-81
2022/08/12 14:26:01;;;;;;;0.00;0.00;;;33.60;44.60;;;;;;5116071;28;20066;-81
2022/08/12 14:28:33;;;;;;;0.10;0.00;;;33.50;46.20;;;;;;5097579;28;20051;-79
2022/08/12 14:31:01;;;;;;;2.72;0.10;;;33.60;46.70;;;;;;5115139;28;20058;-80
2022/08/12 14:33:28;;;;;;;0.00;0.00;;;33.60;46.90;;;;;;5114525;28;20483;-80
2022/08/12 14:35:54;;;;;;;0.00;0.00;;;33.70;46.10;;;;;;5115653;28;20050;-80
2022/08/12 14:38:20;;;;;;;0.00;0.00;;;33.60;45.60;;;;;;5114953;28;20060;-80
2022/08/12 14:40:47;;;;;;;0.00;0.00;;;33.60;44.50;;;;;;5115525;28;20594;-80
2022/08/12 14:43:13;;;;;;;0.03;0.00;;;33.50;44.10;;;;;;5097896;28;20044;-81
2022/08/12 14:45:40;;;;;;;0.00;0.00;;;33.50;45.70;;;;;;5116100;28;20081;-79
2022/08/12 14:48:05;;;;;;;0.10;0.10;;;33.30;44.50;;;;;;5098059;28;20059;-80